Time;durP1;ratioP1;P1;durP2;ratioP2;P2;SDS_P1;SDS_P2;PMS_P1;PMS_P2;Temp;Humidity;BMP_temperature;BMP_pressure;BME280_temperature;BME280_humidity;BME280_pressure;Samples;Min_cycle;Max_cycle;Signal;HPM_P1;HPM_P2
2022/05/11 00:01:26;;;;;;;1.63;1.10;;;19.50;99.90;;;;;;5055361;28;20170;-79
2022/05/11 00:03:53;;;;;;;2.10;0.90;;;19.60;99.90;;;;;;5055367;28;20620;-86
2022/05/11 00:06:19;;;;;;;2.22;1.00;;;19.50;99.90;;;;;;5054994;28;20207;-78
2022/05/11 00:08:45;;;;;;;5.15;1.00;;;19.30;99.90;;;;;;5036951;28;20167;-78
2022/05/11 00:11:10;;;;;;;1.42;0.85;;;19.30;99.90;;;;;;5054700;28;20167;-78
2022/05/11 00:13:36;;;;;;;1.17;0.85;;;19.20;99.90;;;;;;5054992;28;20168;-77
2022/05/11 00:16:02;;;;;;;2.35;0.98;;;19.20;99.90;;;;;;5037079;28;20211;-79
2022/05/11 00:18:28;;;;;;;3.00;0.85;;;19.20;99.90;;;;;;5054479;28;20232;-81
2022/05/11 00:20:54;;;;;;;1.85;0.90;;;19.40;99.90;;;;;;5036544;28;20225;-85
2022/05/11 00:23:19;;;;;;;3.15;1.23;;;19.50;99.90;;;;;;5054988;28;20171;-81
2022/05/11 00:25:45;;;;;;;1.88;0.88;;;19.50;99.90;;;;;;5055173;28;20597;-83
2022/05/11 00:28:12;;;;;;;1.92;0.88;;;19.50;99.90;;;;;;5055124;28;20615;-88
2022/05/11 00:30:38;;;;;;;3.75;0.77;;;19.40;99.90;;;;;;5054896;28;20221;-79
2022/05/11 00:33:03;;;;;;;1.45;0.88;;;19.30;99.90;;;;;;5055945;28;20167;-83
2022/05/11 00:35:33;;;;;;;6.00;1.00;;;19.30;99.90;;;;;;5054927;28;20320;-84
2022/05/11 00:37:59;;;;;;;4.25;0.90;;;19.40;99.90;;;;;;5055131;28;20240;-84
2022/05/11 00:40:25;;;;;;;1.42;0.90;;;19.30;99.90;;;;;;5055395;28;20160;-82
2022/05/11 00:42:52;;;;;;;4.05;0.77;;;19.20;99.90;;;;;;5054879;28;20163;-85
2022/05/11 00:45:18;;;;;;;1.15;1.00;;;19.00;99.90;;;;;;5054960;28;20513;-79
2022/05/11 00:47:56;;;;;;;2.45;0.55;;;19.00;99.90;;;;;;5036556;28;20182;-87
2022/05/11 00:50:30;;;;;;;1.58;0.80;;;19.00;99.90;;;;;;5054413;28;20167;-87
2022/05/11 00:53:09;;;;;;;2.70;0.80;;;19.20;99.90;;;;;;5054211;28;20255;-84
2022/05/11 00:55:40;;;;;;;1.00;0.60;;;19.20;99.90;;;;;;5053980;28;20187;-78
2022/05/11 00:58:34;;;;;;;1.70;0.70;;;19.20;99.90;;;;;;5054076;28;20665;-82
2022/05/11 01:01:00;;;;;;;1.85;0.80;;;19.10;99.90;;;;;;5051713;28;20608;-78
2022/05/11 01:03:33;;;;;;;0.65;0.55;;;19.10;99.90;;;;;;5035691;28;20178;-79
2022/05/11 01:05:59;;;;;;;1.98;0.90;;;19.20;99.90;;;;;;5035612;28;20238;-81
2022/05/11 01:08:28;;;;;;;2.03;0.68;;;19.30;99.90;;;;;;5054158;28;20217;-79
2022/05/11 01:10:54;;;;;;;9.15;1.10;;;19.20;99.90;;;;;;5054339;28;20683;-84
2022/05/11 01:13:21;;;;;;;3.25;0.70;;;19.40;99.90;;;;;;5055071;28;20164;-79
2022/05/11 01:15:50;;;;;;;2.30;0.68;;;19.50;99.90;;;;;;5035835;28;20215;-79
2022/05/11 01:18:18;;;;;;;0.90;0.70;;;19.40;99.90;;;;;;5054219;28;20202;-87
2022/05/11 01:20:44;;;;;;;1.95;0.60;;;19.50;99.90;;;;;;5054091;28;20163;-78
2022/05/11 01:23:38;;;;;;;0.95;0.70;;;19.40;99.90;;;;;;5054485;28;20163;-89
2022/05/11 01:26:04;;;;;;;0.73;0.50;;;19.20;99.90;;;;;;5054341;28;20191;-79
2022/05/11 01:28:31;;;;;;;3.35;0.65;;;19.00;99.90;;;;;;5035995;28;20254;-90
2022/05/11 01:31:05;;;;;;;6.63;1.00;;;19.10;99.90;;;;;;5054471;28;20213;-87
2022/05/11 01:33:32;;;;;;;1.02;0.70;;;19.10;99.90;;;;;;5054185;28;20522;-82
2022/05/11 01:36:30;;;;;;;2.55;0.98;;;19.40;99.90;;;;;;5054123;28;20203;-89
2022/05/11 01:39:05;;;;;;;1.27;0.82;;;19.40;99.90;;;;;;5054745;28;20159;-79
2022/05/11 01:41:38;;;;;;;1.98;0.88;;;19.20;99.90;;;;;;5067798;28;20202;-89
2022/05/11 01:44:09;;;;;;;5.55;1.00;;;19.00;99.90;;;;;;5052151;28;20167;-84
2022/05/11 01:46:36;;;;;;;2.58;1.23;;;19.10;99.90;;;;;;5071944;28;20183;-88
2022/05/11 01:49:02;;;;;;;1.90;0.82;;;19.00;99.90;;;;;;5065571;28;20163;-79
2022/05/11 01:51:28;;;;;;;1.23;0.80;;;19.00;99.90;;;;;;5053755;28;20659;-78
2022/05/11 01:53:54;;;;;;;2.85;0.95;;;18.90;99.90;;;;;;5054091;28;20201;-90
2022/05/11 01:56:22;;;;;;;2.75;1.30;;;18.70;99.90;;;;;;5053218;28;20218;-78
2022/05/11 01:58:50;;;;;;;2.65;1.48;;;18.70;99.90;;;;;;5052925;28;20250;-79
2022/05/11 02:01:19;;;;;;;2.92;1.10;;;18.60;99.90;;;;;;5052689;28;20163;-90
2022/05/11 02:03:45;;;;;;;2.25;0.80;;;18.70;99.90;;;;;;5052833;28;20242;-90
2022/05/11 02:08:55;;;;;;;0.80;0.80;;;18.70;99.90;;;;;;5054077;28;20229;-79
2022/05/11 02:11:21;;;;;;;2.83;0.80;;;18.90;99.90;;;;;;5052506;28;20168;-79
2022/05/11 02:13:47;;;;;;;1.55;0.65;;;18.90;99.90;;;;;;5053295;28;20162;-82
2022/05/11 02:16:13;;;;;;;1.10;1.00;;;19.00;99.90;;;;;;5053154;28;20203;-83
2022/05/11 02:18:39;;;;;;;0.80;0.80;;;18.90;99.90;;;;;;5052824;28;20159;-79
2022/05/11 02:21:07;;;;;;;1.00;0.82;;;18.70;99.90;;;;;;5052877;28;20174;-80
2022/05/11 02:23:34;;;;;;;0.95;0.80;;;18.70;99.90;;;;;;5052559;28;20166;-79
2022/05/11 02:25:59;;;;;;;1.33;0.93;;;18.70;99.90;;;;;;5052072;28;20206;-80
2022/05/11 02:28:25;;;;;;;2.08;0.98;;;18.70;99.90;;;;;;5052617;28;20616;-80
2022/05/11 02:30:53;;;;;;;3.42;1.10;;;18.70;99.90;;;;;;5052390;28;20252;-90
2022/05/11 02:33:20;;;;;;;1.08;0.98;;;18.70;99.90;;;;;;5065463;28;20230;-79
2022/05/11 02:35:49;;;;;;;1.25;0.82;;;18.50;99.90;;;;;;5065677;28;20217;-84
2022/05/11 02:38:34;;;;;;;3.80;1.05;;;18.40;99.90;;;;;;5049619;28;20177;-78
2022/05/11 02:41:00;;;;;;;1.25;1.05;;;18.30;99.90;;;;;;5066167;28;20195;-81
2022/05/11 02:43:26;;;;;;;4.03;1.08;;;18.30;99.90;;;;;;5068918;28;20174;-79
2022/05/11 02:45:53;;;;;;;5.10;1.25;;;18.20;99.90;;;;;;5076117;28;20195;-78
2022/05/11 02:48:22;;;;;;;1.20;1.10;;;18.20;99.90;;;;;;5061365;28;20171;-81
2022/05/11 02:50:59;;;;;;;1.45;1.35;;;18.10;99.90;;;;;;5069697;28;20167;-78
2022/05/11 02:53:27;;;;;;;1.85;1.20;;;18.20;99.90;;;;;;5062202;28;20218;-83
2022/05/11 02:55:56;;;;;;;2.28;1.40;;;18.10;99.90;;;;;;5068804;28;20211;-79
2022/05/11 02:58:36;;;;;;;2.25;1.35;;;18.00;99.90;;;;;;5066950;28;20178;-89
2022/05/11 03:01:03;;;;;;;2.10;1.20;;;17.90;99.90;;;;;;5049939;28;20171;-79
2022/05/11 03:03:33;;;;;;;6.15;1.42;;;17.90;99.90;;;;;;5045888;28;20195;-79
2022/05/11 03:06:05;;;;;;;2.05;1.45;;;17.70;99.90;;;;;;5068576;28;20570;-78
2022/05/11 03:08:31;;;;;;;1.35;1.13;;;17.80;99.90;;;;;;5044006;28;20183;-79
2022/05/11 03:10:58;;;;;;;1.52;1.33;;;17.70;99.90;;;;;;5062543;28;20147;-80
2022/05/11 03:13:25;;;;;;;3.85;1.42;;;17.70;99.90;;;;;;5069349;28;20202;-79
2022/05/11 03:15:53;;;;;;;3.10;1.60;;;17.80;99.90;;;;;;5066421;28;20195;-80
2022/05/11 03:18:19;;;;;;;8.13;1.35;;;17.80;99.90;;;;;;5046969;28;20175;-80
2022/05/11 03:20:45;;;;;;;4.43;1.38;;;17.70;99.90;;;;;;5065526;28;20159;-78
2022/05/11 03:23:10;;;;;;;2.75;1.95;;;17.70;99.90;;;;;;5060915;28;20715;-87
2022/05/11 03:25:36;;;;;;;10.15;1.60;;;17.70;99.90;;;;;;5060506;28;20211;-78
2022/05/11 03:28:02;;;;;;;1.80;1.30;;;17.60;99.90;;;;;;5065120;28;20190;-78
2022/05/11 03:30:28;;;;;;;2.80;1.33;;;17.50;99.90;;;;;;5055010;28;20274;-80
2022/05/11 03:35:39;;;;;;;4.82;1.30;;;17.40;99.90;;;;;;5066905;28;20222;-78
2022/05/11 03:38:05;;;;;;;3.42;1.70;;;17.50;99.90;;;;;;5040671;28;20183;-78
2022/05/11 03:40:34;;;;;;;2.58;1.70;;;17.60;99.90;;;;;;5047567;28;20176;-78
2022/05/11 03:43:03;;;;;;;3.13;1.65;;;17.70;99.90;;;;;;5067284;28;20174;-84
2022/05/11 03:45:30;;;;;;;2.10;1.60;;;17.70;99.90;;;;;;5046047;28;20286;-82
2022/05/11 03:47:55;;;;;;;9.60;1.40;;;17.60;99.90;;;;;;5065691;28;20172;-80
2022/05/11 03:50:26;;;;;;;3.80;1.63;;;17.50;99.90;;;;;;5061697;28;20174;-79
2022/05/11 03:52:54;;;;;;;2.20;1.83;;;17.50;99.90;;;;;;5066421;28;20167;-82
2022/05/11 03:55:24;;;;;;;7.00;1.50;;;17.30;99.90;;;;;;5049143;28;20243;-78
2022/05/11 03:57:50;;;;;;;2.10;1.90;;;17.00;99.90;;;;;;5064331;28;20183;-79
2022/05/11 04:00:21;;;;;;;4.72;1.35;;;17.00;99.90;;;;;;5069043;28;20251;-78
2022/05/11 04:02:48;;;;;;;1.60;1.38;;;17.00;99.90;;;;;;5064974;28;20201;-87
2022/05/11 04:05:14;;;;;;;2.25;1.77;;;16.80;99.90;;;;;;5066375;28;20159;-78
2022/05/11 04:07:42;;;;;;;1.52;1.33;;;16.70;99.90;;;;;;5066739;28;20178;-80
2022/05/11 04:10:09;;;;;;;3.15;1.60;;;16.80;99.90;;;;;;5052412;28;20175;-78
2022/05/11 04:12:36;;;;;;;4.13;1.63;;;17.00;99.90;;;;;;5038240;28;20171;-79
2022/05/11 04:15:04;;;;;;;2.42;1.90;;;17.10;99.90;;;;;;5070236;28;20576;-79
2022/05/11 04:17:30;;;;;;;2.75;2.28;;;16.90;99.90;;;;;;5051355;28;20240;-77
2022/05/11 04:19:55;;;;;;;4.93;1.77;;;16.80;99.90;;;;;;5055867;28;20221;-88
2022/05/11 04:22:24;;;;;;;3.30;1.58;;;16.80;99.90;;;;;;5067532;28;20218;-81
2022/05/11 04:24:50;;;;;;;1.63;1.30;;;16.70;99.90;;;;;;5051384;28;20198;-80
2022/05/11 04:27:16;;;;;;;3.65;1.98;;;16.80;99.90;;;;;;5060719;28;20198;-81
2022/05/11 04:29:41;;;;;;;1.70;1.48;;;16.70;99.90;;;;;;5075599;28;20155;-80
2022/05/11 04:34:48;;;;;;;2.13;1.95;;;16.70;99.90;;;;;;5041995;28;20199;-85
2022/05/11 04:37:14;;;;;;;4.35;1.92;;;16.60;99.90;;;;;;5027023;28;20226;-79
2022/05/11 04:39:40;;;;;;;7.75;1.80;;;16.50;99.90;;;;;;5044921;28;20171;-83
2022/05/11 04:42:08;;;;;;;4.28;1.73;;;16.60;99.90;;;;;;5042650;28;20168;-86
2022/05/11 04:44:35;;;;;;;2.15;1.65;;;16.70;99.90;;;;;;5024403;28;20267;-84
2022/05/11 04:47:12;;;;;;;4.30;1.85;;;16.60;99.90;;;;;;5040167;28;20191;-81
2022/05/11 04:49:39;;;;;;;5.60;1.73;;;16.50;99.90;;;;;;5021621;28;20578;-79
2022/05/11 04:52:08;;;;;;;2.28;1.70;;;16.50;99.90;;;;;;5038938;28;20164;-80
2022/05/11 04:54:41;;;;;;;3.80;1.70;;;16.60;99.90;;;;;;5040564;28;20164;-80
2022/05/11 04:57:08;;;;;;;6.50;2.22;;;16.70;99.90;;;;;;5042646;28;20207;-79
2022/05/11 04:59:34;;;;;;;2.28;1.40;;;16.70;99.90;;;;;;5023069;28;20190;-81
2022/05/11 05:02:01;;;;;;;7.28;1.80;;;16.70;99.90;;;;;;5041180;28;20171;-80
2022/05/11 05:04:27;;;;;;;5.90;2.30;;;16.70;99.90;;;;;;5022882;28;20703;-79
2022/05/11 05:06:54;;;;;;;4.40;1.52;;;16.80;99.90;;;;;;5004465;28;20191;-81
2022/05/11 05:09:19;;;;;;;4.30;1.60;;;16.70;99.90;;;;;;5004545;28;20643;-80
2022/05/11 05:11:45;;;;;;;5.35;1.70;;;16.70;99.90;;;;;;5040683;28;20165;-86
2022/05/11 05:14:11;;;;;;;3.13;1.67;;;16.60;99.90;;;;;;5034629;28;20191;-87
2022/05/11 05:16:37;;;;;;;14.73;2.30;;;16.70;99.90;;;;;;5033730;28;20242;-86
2022/05/11 05:19:03;;;;;;;5.13;1.58;;;16.70;99.90;;;;;;5034476;28;20199;-83
2022/05/11 05:21:29;;;;;;;4.13;1.73;;;16.70;99.90;;;;;;5017520;28;20164;-81
2022/05/11 05:23:55;;;;;;;2.17;1.40;;;16.80;99.90;;;;;;5038358;28;20195;-80
2022/05/11 05:26:21;;;;;;;3.45;1.55;;;16.80;99.90;;;;;;5037223;28;20188;-83
2022/05/11 05:31:31;;;;;;;8.82;1.95;;;16.60;99.90;;;;;;5033888;28;20245;-79
2022/05/11 05:34:06;;;;;;;19.10;1.77;;;16.70;99.90;;;;;;5015649;28;20188;-80
2022/05/11 05:36:43;;;;;;;5.43;2.03;;;16.80;99.90;;;;;;5015144;28;20211;-80
2022/05/11 05:39:09;;;;;;;7.07;1.45;;;17.00;99.90;;;;;;5033737;28;20164;-80
2022/05/11 05:41:35;;;;;;;8.50;1.85;;;17.10;99.90;;;;;;5025031;28;20176;-79
2022/05/11 05:44:07;;;;;;;5.05;1.63;;;17.10;99.90;;;;;;5043108;28;20160;-79
2022/05/11 05:46:53;;;;;;;4.60;2.10;;;17.10;99.90;;;;;;5025155;28;20660;-79
2022/05/11 05:49:18;;;;;;;9.30;1.60;;;17.10;99.90;;;;;;5015427;28;20178;-82
2022/05/11 05:51:44;;;;;;;5.82;1.98;;;17.10;99.90;;;;;;5034987;28;20168;-85
2022/05/11 05:54:11;;;;;;;4.15;2.22;;;17.00;99.90;;;;;;5038948;28;20164;-79
2022/05/11 05:56:48;;;;;;;7.68;2.00;;;17.10;99.90;;;;;;5037162;28;20683;-79
2022/05/11 05:59:18;;;;;;;4.20;1.67;;;17.20;99.90;;;;;;5031558;28;20266;-79
2022/05/11 06:01:44;;;;;;;9.48;2.28;;;17.30;99.90;;;;;;5015975;28;20187;-79
2022/05/11 06:04:09;;;;;;;14.55;2.28;;;17.40;99.90;;;;;;5036138;28;20171;-81
2022/05/11 06:06:35;;;;;;;2.22;1.40;;;17.40;99.90;;;;;;5017872;28;20188;-82
2022/05/11 06:09:03;;;;;;;9.48;1.70;;;17.40;99.90;;;;;;5039635;28;20741;-82
2022/05/11 06:11:28;;;;;;;13.63;1.80;;;17.30;99.90;;;;;;5038226;28;20195;-80
2022/05/11 06:13:54;;;;;;;3.70;1.38;;;17.30;99.90;;;;;;5036372;28;20222;-83
2022/05/11 06:16:20;;;;;;;7.35;1.88;;;17.40;99.90;;;;;;5033292;28;20502;-80
2022/05/11 06:18:46;;;;;;;4.10;1.33;;;17.40;99.90;;;;;;5015183;28;20207;-80
2022/05/11 06:21:13;;;;;;;3.13;1.25;;;17.50;99.90;;;;;;5016643;28;20596;-79
2022/05/11 06:23:48;;;;;;;3.70;1.58;;;17.60;99.90;;;;;;5035226;28;20207;-85
2022/05/11 06:26:17;;;;;;;4.55;1.35;;;17.60;99.90;;;;;;5040747;28;20211;-92
2022/05/11 06:28:46;;;;;;;3.28;1.08;;;17.60;99.90;;;;;;5022015;28;20176;-78
2022/05/11 06:31:14;;;;;;;3.03;0.95;;;17.60;99.90;;;;;;5016376;28;20187;-78
2022/05/11 06:33:40;;;;;;;5.28;0.95;;;17.60;99.90;;;;;;5018011;28;20277;-78
2022/05/11 06:36:09;;;;;;;4.15;1.02;;;17.80;99.90;;;;;;5036105;28;20654;-78
2022/05/11 06:38:35;;;;;;;2.25;0.95;;;17.90;99.90;;;;;;5016388;28;20187;-77
2022/05/11 06:41:13;;;;;;;6.18;0.85;;;17.90;99.90;;;;;;5016373;28;20168;-78
2022/05/11 06:43:38;;;;;;;2.45;0.85;;;17.80;99.90;;;;;;5034171;28;20183;-80
2022/05/11 06:46:04;;;;;;;3.42;0.75;;;17.50;99.90;;;;;;5034033;28;20198;-80
2022/05/11 06:48:33;;;;;;;1.73;0.70;;;17.60;99.90;;;;;;5034839;28;20569;-79
2022/05/11 06:51:00;;;;;;;2.75;0.75;;;17.60;99.90;;;;;;5033695;28;20168;-84
2022/05/11 06:53:26;;;;;;;5.15;1.08;;;17.70;99.90;;;;;;5018000;28;20175;-83
2022/05/11 07:01:20;;;;;;;4.78;0.95;;;18.00;99.90;;;;;;5034846;28;20211;-89
2022/05/11 07:03:46;;;;;;;3.85;0.60;;;17.90;99.90;;;;;;5035129;28;20176;-81
2022/05/11 07:06:12;;;;;;;1.52;0.80;;;18.20;99.90;;;;;;5034611;28;20194;-78
2022/05/11 07:08:44;;;;;;;3.17;0.90;;;18.80;99.90;;;;;;5034788;28;20583;-79
2022/05/11 07:14:20;;;;;;;1.75;0.50;;;20.90;99.90;;;;;;5038919;28;20194;-85
2022/05/11 07:16:46;;;;;;;9.82;0.93;;;21.40;99.90;;;;;;5020469;28;20207;-89
2022/05/11 07:19:13;;;;;;;1.80;0.80;;;21.80;99.90;;;;;;5017708;28;20537;-77
2022/05/11 07:21:38;;;;;;;6.38;0.80;;;22.20;99.90;;;;;;5036118;28;20200;-77
2022/05/11 07:24:22;;;;;;;1.75;0.70;;;22.40;99.90;;;;;;5038745;28;20247;-79
2022/05/11 07:26:51;;;;;;;6.88;0.85;;;23.10;99.90;;;;;;5059972;28;20171;-85
2022/05/11 07:29:17;;;;;;;12.98;1.10;;;23.20;99.90;;;;;;5024460;28;20175;-77
2022/05/11 07:31:46;;;;;;;5.38;1.02;;;23.10;99.90;;;;;;5038621;28;20151;-77
2022/05/11 07:34:13;;;;;;;7.78;0.82;;;23.20;99.70;;;;;;5018120;28;20187;-78
2022/05/11 07:36:38;;;;;;;3.58;1.30;;;22.50;99.90;;;;;;5035821;28;20215;-77
2022/05/11 07:39:04;;;;;;;3.83;1.23;;;22.50;99.90;;;;;;5035837;28;20186;-78
2022/05/11 07:41:30;;;;;;;3.90;0.95;;;22.10;99.90;;;;;;5035546;28;20304;-78
2022/05/11 07:43:57;;;;;;;9.35;1.40;;;21.90;99.90;;;;;;5035253;28;20669;-77
2022/05/11 07:46:22;;;;;;;6.05;1.23;;;21.50;99.90;;;;;;5036063;28;20542;-78
2022/05/11 07:48:48;;;;;;;4.60;0.80;;;21.30;99.90;;;;;;5035278;28;20186;-81
2022/05/11 07:51:14;;;;;;;10.27;1.10;;;20.80;99.90;;;;;;5035194;28;20171;-81
2022/05/11 07:53:40;;;;;;;2.55;0.90;;;20.60;99.90;;;;;;5035455;28;20691;-85
2022/05/11 08:01:34;;;;;;;6.38;0.80;;;20.50;99.90;;;;;;5036334;28;20202;-83
2022/05/11 08:04:00;;;;;;;7.65;1.00;;;20.60;99.90;;;;;;5035555;28;20628;-84
2022/05/11 08:06:26;;;;;;;8.00;0.98;;;20.60;99.90;;;;;;5045207;28;20183;-81
2022/05/11 08:08:53;;;;;;;2.45;1.25;;;20.50;99.90;;;;;;5029791;28;20176;-81
2022/05/11 08:11:30;;;;;;;12.15;2.72;;;20.50;99.90;;;;;;5052353;28;20172;-81
2022/05/11 08:14:14;;;;;;;3.60;1.05;;;20.50;99.90;;;;;;5050226;28;20176;-81
2022/05/11 08:16:40;;;;;;;14.90;4.68;;;20.40;99.90;;;;;;5044389;28;20221;-81
2022/05/11 08:19:07;;;;;;;14.82;2.53;;;20.40;99.90;;;;;;5043997;28;20164;-82
2022/05/11 08:21:36;;;;;;;5.20;2.83;;;20.20;99.90;;;;;;5042816;28;20629;-81
2022/05/11 08:24:03;;;;;;;7.38;1.30;;;20.30;99.90;;;;;;5026334;28;20175;-81
2022/05/11 08:26:29;;;;;;;5.13;1.15;;;20.50;99.90;;;;;;5008531;28;20262;-84
2022/05/11 08:28:54;;;;;;;15.70;1.15;;;20.50;99.90;;;;;;5016283;28;20172;-85
2022/05/11 08:34:06;;;;;;;16.15;2.28;;;20.80;99.90;;;;;;5035828;28;20265;-85
2022/05/11 08:36:32;;;;;;;11.63;1.50;;;21.00;99.90;;;;;;5017234;28;20584;-88
2022/05/11 08:38:59;;;;;;;7.78;1.75;;;21.10;99.90;;;;;;5035271;28;20210;-83
2022/05/11 08:41:28;;;;;;;5.10;1.30;;;21.20;99.90;;;;;;5016801;28;20175;-86
2022/05/11 08:44:07;;;;;;;6.10;1.52;;;21.30;99.90;;;;;;5034483;28;20180;-82
2022/05/11 08:47:11;;;;;;;8.70;1.52;;;21.10;99.90;;;;;;5017904;28;20192;-86
2022/05/11 08:49:37;;;;;;;7.75;1.55;;;21.30;99.90;;;;;;5017209;28;20188;-85
2022/05/11 08:52:10;;;;;;;30.73;2.85;;;21.50;99.90;;;;;;5033975;28;20171;-84
2022/05/11 08:54:50;;;;;;;7.72;1.45;;;21.70;99.90;;;;;;5057202;28;20181;-80
2022/05/11 08:57:23;;;;;;;5.05;1.75;;;21.70;99.90;;;;;;5044229;28;20207;-79
2022/05/11 08:59:53;;;;;;;8.75;1.55;;;21.80;99.90;;;;;;5043369;28;20172;-79
2022/05/11 09:02:25;;;;;;;2.72;1.15;;;21.70;99.90;;;;;;5036776;28;20175;-78
2022/05/11 09:04:57;;;;;;;3.42;0.98;;;21.60;99.90;;;;;;5043898;28;20175;-79
2022/05/11 09:07:24;;;;;;;7.20;1.10;;;21.60;99.90;;;;;;5035943;28;20187;-78
2022/05/11 09:09:55;;;;;;;12.23;1.50;;;21.50;99.90;;;;;;5037788;28;20160;-78
2022/05/11 09:12:24;;;;;;;6.10;1.50;;;21.50;99.90;;;;;;5041496;28;20183;-78
2022/05/11 09:14:56;;;;;;;1.85;1.30;;;21.50;99.90;;;;;;5043410;28;20194;-78
2022/05/11 09:17:24;;;;;;;3.90;1.35;;;21.60;99.90;;;;;;5039169;28;20618;-79
2022/05/11 09:20:10;;;;;;;5.40;1.38;;;21.80;99.90;;;;;;5044299;28;20256;-79
2022/05/11 09:22:45;;;;;;;3.28;1.40;;;22.00;99.90;;;;;;5044893;28;20171;-79
2022/05/11 09:25:20;;;;;;;8.65;1.40;;;22.20;99.90;;;;;;5044789;28;20246;-79
2022/05/11 09:27:50;;;;;;;5.68;2.15;;;22.00;99.90;;;;;;5043842;28;20231;-78
2022/05/11 09:30:23;;;;;;;15.68;1.55;;;21.90;99.90;;;;;;5044824;28;20264;-78
2022/05/11 09:32:54;;;;;;;5.05;1.92;;;21.90;99.90;;;;;;5038281;28;20652;-79
2022/05/11 09:35:22;;;;;;;5.13;1.77;;;22.10;99.90;;;;;;5033675;28;20548;-78
2022/05/11 09:38:17;;;;;;;4.90;1.75;;;22.20;99.90;;;;;;5033654;28;20220;-79
2022/05/11 09:41:03;;;;;;;5.65;1.83;;;22.30;99.90;;;;;;5033432;28;20175;-79
2022/05/11 09:43:32;;;;;;;10.57;1.70;;;22.40;99.90;;;;;;5034005;28;20205;-78
2022/05/11 09:45:58;;;;;;;8.02;1.88;;;22.30;99.90;;;;;;5032089;28;20278;-79
2022/05/11 09:48:31;;;;;;;6.72;1.70;;;22.30;99.90;;;;;;5034434;28;20190;-79
2022/05/11 09:51:39;;;;;;;5.65;2.00;;;22.40;99.90;;;;;;5033427;28;20172;-78
2022/05/11 09:54:20;;;;;;;2.85;1.70;;;22.50;99.90;;;;;;4992068;28;20275;-79
2022/05/11 09:56:49;;;;;;;17.77;2.20;;;22.30;99.90;;;;;;5030527;28;20231;-79
2022/05/11 09:59:32;;;;;;;5.75;1.70;;;22.50;99.90;;;;;;5033118;28;20245;-79
2022/05/11 10:02:36;;;;;;;4.40;1.70;;;22.50;99.90;;;;;;5033531;28;20164;-78
2022/05/11 10:05:26;;;;;;;12.60;2.35;;;22.50;99.90;;;;;;5028908;28;20278;-78
2022/05/11 10:08:09;;;;;;;9.25;1.83;;;22.40;99.90;;;;;;5033061;28;20203;-78
2022/05/11 10:11:04;;;;;;;4.97;1.90;;;22.50;99.90;;;;;;5033142;28;20576;-79
2022/05/11 10:13:35;;;;;;;10.32;2.30;;;22.40;99.90;;;;;;5023568;28;20198;-78
2022/05/11 10:21:50;;;;;;;7.95;2.20;;;22.50;99.90;;;;;;5032874;28;20194;-78
2022/05/11 10:24:37;;;;;;;7.72;1.75;;;22.60;99.90;;;;;;5033036;28;20285;-79
2022/05/11 10:27:23;;;;;;;4.95;1.42;;;22.90;99.90;;;;;;5031960;28;20546;-79
2022/05/11 10:30:12;;;;;;;5.20;2.10;;;23.00;99.90;;;;;;5032742;28;20168;-79
2022/05/11 10:33:22;;;;;;;6.45;1.90;;;23.00;99.90;;;;;;5032422;28;20698;-78
2022/05/11 10:36:18;;;;;;;7.75;2.03;;;22.70;99.90;;;;;;4990895;28;20731;-79
2022/05/11 10:39:08;;;;;;;6.72;1.95;;;22.40;99.90;;;;;;4974821;28;20841;-78
2022/05/11 10:41:59;;;;;;;5.93;2.40;;;22.20;99.90;;;;;;5027115;28;20325;-79
2022/05/11 10:44:52;;;;;;;5.18;1.77;;;22.30;99.90;;;;;;5035717;28;20172;-78
2022/05/11 10:47:55;;;;;;;11.07;2.13;;;22.50;99.90;;;;;;5043301;28;20542;-79
2022/05/11 10:50:55;;;;;;;6.50;2.00;;;22.70;99.90;;;;;;5045209;28;20270;-79
2022/05/11 10:53:57;;;;;;;6.72;2.40;;;22.90;99.90;;;;;;5044114;28;20182;-79
2022/05/11 10:56:44;;;;;;;2.85;1.83;;;23.00;99.90;;;;;;5031340;28;20223;-79
2022/05/11 10:59:26;;;;;;;16.13;2.13;;;23.10;99.90;;;;;;5046580;28;20175;-78
2022/05/11 11:02:46;;;;;;;5.85;2.35;;;23.30;99.90;;;;;;5046994;28;20229;-78
2022/05/11 11:05:37;;;;;;;3.97;2.38;;;23.30;99.90;;;;;;5005258;28;20173;-81
2022/05/11 11:08:23;;;;;;;13.40;2.00;;;23.30;99.90;;;;;;5044691;28;20192;-79
2022/05/11 11:11:11;;;;;;;8.07;2.22;;;23.30;99.90;;;;;;5046106;28;20187;-79
2022/05/11 11:13:51;;;;;;;10.48;2.22;;;23.40;99.90;;;;;;5046273;28;20179;-79
2022/05/11 11:16:18;;;;;;;10.50;1.90;;;23.40;99.90;;;;;;5044159;28;20269;-78
2022/05/11 11:18:50;;;;;;;5.22;3.20;;;23.50;99.90;;;;;;5046657;28;20172;-79
2022/05/11 11:21:17;;;;;;;8.20;2.60;;;23.40;99.90;;;;;;5047070;28;20175;-79
2022/05/11 11:23:47;;;;;;;14.88;2.42;;;23.20;99.90;;;;;;5047574;28;20160;-79
2022/05/11 11:26:59;;;;;;;10.77;1.90;;;23.00;99.90;;;;;;5046362;28;20214;-78
2022/05/11 11:29:35;;;;;;;11.48;2.13;;;22.90;99.90;;;;;;5038855;28;20251;-80
2022/05/11 11:32:07;;;;;;;9.20;2.03;;;22.70;99.90;;;;;;5046154;28;20234;-79
2022/05/11 11:34:39;;;;;;;14.25;1.98;;;22.90;99.90;;;;;;5043994;28;20199;-79
2022/05/11 11:37:24;;;;;;;7.78;1.35;;;23.00;99.90;;;;;;5046773;28;20211;-79
2022/05/11 11:40:15;;;;;;;9.95;2.17;;;23.20;99.90;;;;;;5044380;28;20194;-82
2022/05/11 11:42:43;;;;;;;8.88;1.75;;;23.40;99.90;;;;;;5045301;28;20167;-79
2022/05/11 11:45:30;;;;;;;6.53;2.10;;;23.50;99.90;;;;;;5044899;28;20160;-81
2022/05/11 11:48:21;;;;;;;5.30;1.85;;;23.40;99.90;;;;;;5043820;28;20282;-79
2022/05/11 11:50:55;;;;;;;4.03;1.70;;;23.30;99.90;;;;;;5044122;28;20657;-78
2022/05/11 11:53:30;;;;;;;5.10;1.98;;;23.40;99.90;;;;;;5046164;28;20175;-79
2022/05/11 11:56:24;;;;;;;5.90;2.00;;;23.50;99.90;;;;;;5042641;28;20226;-80
2022/05/11 11:59:22;;;;;;;9.18;2.20;;;23.60;99.90;;;;;;5043616;28;20325;-80
2022/05/11 12:01:49;;;;;;;12.10;1.80;;;23.60;99.90;;;;;;5038495;28;20174;-79
2022/05/11 12:04:40;;;;;;;11.45;1.73;;;23.40;99.90;;;;;;5034684;28;20172;-78
2022/05/11 12:15:43;;;;;;;14.35;2.15;;;23.60;99.90;;;;;;5035025;28;20257;-78
2022/05/11 12:18:32;;;;;;;5.90;1.67;;;23.60;99.90;;;;;;5034897;28;20176;-79
2022/05/11 12:21:01;;;;;;;13.48;1.90;;;23.70;99.90;;;;;;5035416;28;20557;-78
2022/05/11 12:23:34;;;;;;;9.88;1.85;;;23.80;99.90;;;;;;5034103;28;20187;-78
2022/05/11 12:26:10;;;;;;;3.42;1.35;;;23.70;99.90;;;;;;5035564;28;20192;-78
2022/05/11 12:28:43;;;;;;;8.15;2.13;;;23.70;99.90;;;;;;5035248;28;20183;-79
2022/05/11 12:31:21;;;;;;;9.43;1.70;;;23.90;99.90;;;;;;5035256;28;20200;-78
2022/05/11 12:33:54;;;;;;;8.05;2.28;;;23.90;99.90;;;;;;5034672;28;20270;-79
2022/05/11 12:36:40;;;;;;;15.18;1.60;;;24.10;99.90;;;;;;5034644;28;20644;-78
2022/05/11 12:39:07;;;;;;;15.43;2.25;;;24.20;99.90;;;;;;5034251;28;20187;-78
2022/05/11 12:41:33;;;;;;;6.85;1.70;;;24.10;99.90;;;;;;5034966;28;20187;-78
2022/05/11 12:44:05;;;;;;;13.32;2.45;;;24.10;99.90;;;;;;5034677;28;20199;-79
2022/05/11 12:46:35;;;;;;;9.50;1.95;;;24.10;99.90;;;;;;5033039;28;20664;-79
2022/05/11 12:49:04;;;;;;;3.53;1.55;;;23.90;99.90;;;;;;5034080;28;20168;-79
2022/05/11 12:51:38;;;;;;;10.68;1.90;;;24.00;99.90;;;;;;5034993;28;20664;-79
2022/05/11 12:54:06;;;;;;;9.77;1.50;;;23.90;99.90;;;;;;5032531;28;20163;-79
2022/05/11 12:56:38;;;;;;;7.88;1.80;;;24.10;99.90;;;;;;5033962;28;20244;-78
2022/05/11 12:59:22;;;;;;;12.20;1.92;;;24.10;99.90;;;;;;5034674;28;20237;-79
2022/05/11 13:01:47;;;;;;;12.13;1.88;;;23.90;99.90;;;;;;5034284;28;20194;-79
2022/05/11 13:04:24;;;;;;;9.60;2.13;;;24.00;99.90;;;;;;5033270;28;20275;-79
2022/05/11 13:06:54;;;;;;;3.78;1.85;;;24.20;99.90;;;;;;5034354;28;20188;-78
2022/05/11 13:09:39;;;;;;;16.17;1.55;;;24.40;99.90;;;;;;5034950;28;20259;-78
2022/05/11 13:12:07;;;;;;;7.72;1.33;;;24.40;99.90;;;;;;5034680;28;20168;-79
2022/05/11 13:14:43;;;;;;;2.75;1.40;;;24.40;99.90;;;;;;5034869;28;20172;-78
2022/05/11 13:17:25;;;;;;;10.45;1.77;;;24.50;99.90;;;;;;5034701;28;20729;-79
2022/05/11 13:20:00;;;;;;;13.35;2.08;;;24.40;99.90;;;;;;5034457;28;20172;-79
2022/05/11 13:22:29;;;;;;;11.55;1.85;;;24.50;99.90;;;;;;5034460;28;20167;-79
2022/05/11 13:25:07;;;;;;;13.65;2.00;;;24.40;99.90;;;;;;5033209;28;20179;-79
2022/05/11 13:27:48;;;;;;;12.40;1.70;;;24.40;99.90;;;;;;5033586;28;20222;-78
2022/05/11 13:30:29;;;;;;;8.18;2.15;;;24.40;99.90;;;;;;5033655;28;20168;-78
2022/05/11 13:32:57;;;;;;;9.73;1.90;;;24.20;99.90;;;;;;5034109;28;20188;-78
2022/05/11 13:35:34;;;;;;;9.73;1.80;;;24.30;99.90;;;;;;5033953;28;20163;-77
2022/05/11 13:38:09;;;;;;;2.85;1.90;;;24.50;99.90;;;;;;5033562;28;20294;-78
2022/05/11 13:40:42;;;;;;;4.93;1.70;;;24.70;99.90;;;;;;5033896;28;20170;-78
2022/05/11 13:43:32;;;;;;;4.45;1.85;;;25.10;99.90;;;;;;5033740;28;20176;-78
2022/05/11 13:46:00;;;;;;;4.25;1.60;;;25.10;99.90;;;;;;5033775;28;20199;-78
2022/05/11 13:48:31;;;;;;;3.47;1.60;;;24.90;99.90;;;;;;5042676;28;20171;-78
2022/05/11 13:51:25;;;;;;;12.45;1.80;;;25.10;99.90;;;;;;5039023;28;20175;-78
2022/05/11 13:53:54;;;;;;;5.65;2.15;;;25.00;99.90;;;;;;5036612;28;20642;-78